createdAt,value
2023-11-19T00:01:53.131Z,6.90
2023-11-19T00:04:55.601Z,6.97
2023-11-19T00:07:57.597Z,6.38
2023-11-19T00:10:59.518Z,8.18
2023-11-19T00:14:01.423Z,7.03
2023-11-19T00:17:05.277Z,7.30
2023-11-19T00:20:08.923Z,11.00
2023-11-19T00:23:10.804Z,7.55
2023-11-19T00:26:13.672Z,8.55
2023-11-19T00:29:17.213Z,9.63
2023-11-19T00:32:19.742Z,10.23
2023-11-19T00:35:21.856Z,9.23
2023-11-19T00:38:23.792Z,8.60
2023-11-19T00:41:26.810Z,9.38
2023-11-19T00:44:28.812Z,8.57
2023-11-19T00:47:32.449Z,10.63
2023-11-19T00:50:37.255Z,8.65
2023-11-19T00:53:40.561Z,9.13
2023-11-19T00:56:42.445Z,9.77
2023-11-19T00:59:44.746Z,9.07
2023-11-19T01:02:47.830Z,9.18
2023-11-19T01:05:49.840Z,8.77
2023-11-19T01:08:51.726Z,9.00
2023-11-19T01:11:55.337Z,8.02
2023-11-19T01:14:59.136Z,7.57
2023-11-19T01:18:03.354Z,7.47
2023-11-19T01:21:06.059Z,8.02
2023-11-19T01:24:10.710Z,8.82
2023-11-19T01:27:13.433Z,8.45
2023-11-19T01:30:15.369Z,8.40
2023-11-19T01:33:17.265Z,8.60
2023-11-19T01:36:19.249Z,8.93
2023-11-19T01:39:22.353Z,6.60
2023-11-19T01:42:26.677Z,9.60
2023-11-19T01:45:30.499Z,9.38
2023-11-19T01:48:40.548Z,10.07
2023-11-19T01:51:43.228Z,7.53
2023-11-19T01:54:46.304Z,8.90
2023-11-19T01:57:50.323Z,8.90
2023-11-19T02:00:53.247Z,7.88
2023-11-19T02:03:55.359Z,9.32
2023-11-19T02:06:59.584Z,8.73
2023-11-19T02:10:03.753Z,9.80
2023-11-19T02:13:07.658Z,9.05
2023-11-19T02:16:10.830Z,10.05
2023-11-19T02:19:12.837Z,9.30
2023-11-19T02:22:14.806Z,9.32
2023-11-19T02:25:26.563Z,9.10
2023-11-19T02:28:28.747Z,9.57
2023-11-19T02:31:30.708Z,8.60
2023-11-19T02:34:32.738Z,8.27
2023-11-19T02:37:40.172Z,7.47
2023-11-19T02:40:42.329Z,10.20
2023-11-19T02:43:44.276Z,7.80
2023-11-19T02:46:46.282Z,8.93
2023-11-19T02:49:49.134Z,9.38
2023-11-19T02:52:51.828Z,8.95
2023-11-19T02:55:53.762Z,8.43
2023-11-19T02:58:55.654Z,10.02
2023-11-19T03:01:58.743Z,8.75
2023-11-19T03:05:01.227Z,8.27
2023-11-19T03:08:04.267Z,9.73
2023-11-19T03:11:06.806Z,8.63
2023-11-19T03:14:08.978Z,9.02
2023-11-19T03:17:11.068Z,12.20
2023-11-19T03:20:16.491Z,9.95
2023-11-19T03:23:18.355Z,13.30
2023-11-19T03:26:20.252Z,9.57
2023-11-19T03:29:22.180Z,11.02
2023-11-19T03:32:24.243Z,11.77
2023-11-19T03:35:26.194Z,9.52
2023-11-19T03:38:28.141Z,10.35
2023-11-19T03:41:41.668Z,10.18
2023-11-19T03:44:44.165Z,9.93
2023-11-19T03:47:46.342Z,9.93
2023-11-19T03:50:48.192Z,12.38
2023-11-19T03:53:50.176Z,12.98
2023-11-19T03:56:52.355Z,10.18
2023-11-19T03:59:54.269Z,11.48
2023-11-19T04:02:56.684Z,13.20
2023-11-19T04:05:58.627Z,13.20
2023-11-19T04:09:00.493Z,11.80
2023-11-19T04:12:02.820Z,11.85
2023-11-19T04:15:05.808Z,12.20
2023-11-19T04:18:08.398Z,9.35
2023-11-19T04:21:10.823Z,11.93
2023-11-19T04:24:13.677Z,11.38
2023-11-19T04:27:17.154Z,11.13
2023-11-19T04:30:19.830Z,11.45
2023-11-19T04:33:21.685Z,10.10
2023-11-19T04:36:26.058Z,10.82
2023-11-19T04:39:28.101Z,12.98
2023-11-19T04:42:30.800Z,16.58
2023-11-19T04:45:33.457Z,10.57
2023-11-19T04:51:44.337Z,12.35
2023-11-19T04:54:46.374Z,10.68
2023-11-19T04:57:48.845Z,9.40
2023-11-19T05:00:50.698Z,11.07
2023-11-19T05:03:52.877Z,10.88
2023-11-19T05:06:54.927Z,10.63
2023-11-19T05:09:56.956Z,11.70
2023-11-19T05:12:58.923Z,11.40
2023-11-19T05:16:00.999Z,12.02
2023-11-19T05:19:02.960Z,9.85
2023-11-19T05:22:05.116Z,11.45
2023-11-19T05:25:07.481Z,9.75
2023-11-19T05:28:09.377Z,13.52
2023-11-19T05:31:11.438Z,10.75
2023-11-19T05:34:16.175Z,10.65
2023-11-19T05:37:18.180Z,11.02
2023-11-19T05:40:21.890Z,12.35
2023-11-19T05:43:23.761Z,11.18
2023-11-19T05:46:27.112Z,11.13
2023-11-19T05:49:29.159Z,11.73
2023-11-19T05:52:34.718Z,12.50
2023-11-19T05:55:38.936Z,11.80
2023-11-19T05:58:41.650Z,9.75
2023-11-19T06:01:43.663Z,11.48
2023-11-19T06:04:48.987Z,11.43
2023-11-19T06:07:52.559Z,12.07
2023-11-19T06:10:54.559Z,11.88
2023-11-19T06:13:57.486Z,12.85
2023-11-19T06:17:00.057Z,13.50
2023-11-19T06:20:02.147Z,15.57
2023-11-19T06:23:04.113Z,14.25
2023-11-19T06:26:06.382Z,17.27
2023-11-19T06:29:08.332Z,17.33
2023-11-19T06:35:15.194Z,14.63
2023-11-19T06:38:17.189Z,17.02
2023-11-19T06:41:19.207Z,13.80
2023-11-19T06:44:22.096Z,11.82
2023-11-19T06:47:27.811Z,16.00
2023-11-19T06:50:29.820Z,14.38
2023-11-19T06:53:31.759Z,13.57
2023-11-19T06:56:36.573Z,11.57
2023-11-19T06:59:38.960Z,12.43
2023-11-19T07:02:41.080Z,13.20
2023-11-19T07:05:43.295Z,14.23
2023-11-19T07:08:48.584Z,13.02
2023-11-19T07:11:53.151Z,12.40
2023-11-19T07:14:56.393Z,13.45
2023-11-19T07:21:06.083Z,12.82
2023-11-19T07:24:08.521Z,13.15
2023-11-19T07:27:10.453Z,13.38
2023-11-19T07:30:12.540Z,12.90
2023-11-19T07:33:15.050Z,13.13
2023-11-19T07:36:18.228Z,14.45
2023-11-19T07:39:22.078Z,14.98
2023-11-19T07:42:25.141Z,14.10
2023-11-19T07:45:28.562Z,13.18
2023-11-19T07:48:30.554Z,15.13
2023-11-19T07:51:32.726Z,25.65
2023-11-19T07:54:35.018Z,14.90
2023-11-19T07:57:37.878Z,15.45
2023-11-19T08:00:40.048Z,19.60
2023-11-19T08:06:59.417Z,21.55
2023-11-19T08:10:01.454Z,24.33
2023-11-19T08:13:03.397Z,24.02
2023-11-19T08:16:05.803Z,23.67
2023-11-19T08:19:09.817Z,18.83
2023-11-19T08:22:11.718Z,18.95
2023-11-19T08:25:14.267Z,18.08
2023-11-19T08:28:16.332Z,18.45
2023-11-19T08:31:18.268Z,15.82
2023-11-19T08:34:20.796Z,17.92
2023-11-19T08:37:23.980Z,16.27
2023-11-19T08:40:29.541Z,16.48
2023-11-19T08:43:33.102Z,17.42
2023-11-19T08:46:35.060Z,16.73
2023-11-19T08:49:37.353Z,13.32
2023-11-19T08:52:39.485Z,14.52
2023-11-19T08:55:41.476Z,14.38
2023-11-19T08:58:43.332Z,15.80
2023-11-19T09:01:46.260Z,16.70
2023-11-19T09:04:49.744Z,17.17
2023-11-19T09:07:52.748Z,24.48
2023-11-19T09:10:54.625Z,21.70
2023-11-19T09:13:56.589Z,19.13
2023-11-19T09:16:59.361Z,18.50
2023-11-19T09:20:01.209Z,20.27
2023-11-19T09:23:03.199Z,20.05
2023-11-19T09:26:06.506Z,22.00
2023-11-19T09:29:12.557Z,20.10
2023-11-19T09:32:14.614Z,22.38
2023-11-19T09:35:17.358Z,20.20
2023-11-19T09:38:19.298Z,23.17
2023-11-19T09:41:21.356Z,22.67
2023-11-19T09:44:24.437Z,23.98
2023-11-19T09:47:29.053Z,29.58
2023-11-19T09:50:32.341Z,33.38
2023-11-19T09:53:35.400Z,28.23
2023-11-19T09:56:39.006Z,27.00
2023-11-19T09:59:41.901Z,23.63
2023-11-19T10:02:48.164Z,25.25
2023-11-19T10:05:50.441Z,23.05
2023-11-19T10:08:52.474Z,23.30
2023-11-19T10:11:54.376Z,21.40
2023-11-19T10:14:58.202Z,20.27
2023-11-19T10:18:00.544Z,14.38
2023-11-19T10:21:02.489Z,12.65
2023-11-19T10:24:05.322Z,12.68
2023-11-19T10:27:10.606Z,13.25
2023-11-19T10:30:13.219Z,11.85
2023-11-19T10:33:21.246Z,13.05
2023-11-19T10:36:25.370Z,11.45
2023-11-19T10:39:56.400Z,11.48
2023-11-19T10:43:04.995Z,10.00
2023-11-19T10:46:12.052Z,11.30
2023-11-19T10:49:14.137Z,9.70
2023-11-19T10:52:22.932Z,11.00
2023-11-19T10:55:28.985Z,9.57
2023-11-19T10:58:34.611Z,9.50
2023-11-19T11:01:45.028Z,10.10
2023-11-19T11:04:49.104Z,9.82
2023-11-19T11:07:53.582Z,9.95
2023-11-19T11:10:58.029Z,11.57
2023-11-19T11:14:03.231Z,10.95
2023-11-19T11:17:09.091Z,11.52
2023-11-19T11:20:11.727Z,13.57
2023-11-19T11:23:35.349Z,13.15
2023-11-19T11:27:09.841Z,14.70
2023-11-19T11:30:20.354Z,11.93
2023-11-19T11:33:41.940Z,13.27
2023-11-19T11:37:08.921Z,15.05
2023-11-19T11:40:17.221Z,14.45
2023-11-19T11:43:45.395Z,14.82
2023-11-19T11:46:55.419Z,16.33
2023-11-19T11:50:06.137Z,15.88
2023-11-19T11:53:18.578Z,19.92
2023-11-19T11:56:20.598Z,19.40
2023-11-19T11:59:24.998Z,21.65
2023-11-19T12:02:27.459Z,20.52
2023-11-19T12:05:30.792Z,21.48
2023-11-19T12:08:53.286Z,21.23
2023-11-19T12:12:14.285Z,20.23
2023-11-19T12:15:16.349Z,20.63
2023-11-19T12:18:21.048Z,19.48
2023-11-19T12:21:31.093Z,17.00
2023-11-19T12:24:33.351Z,18.83
2023-11-19T12:27:35.356Z,15.18
2023-11-19T12:30:37.398Z,15.18
2023-11-19T12:33:39.478Z,14.32
2023-11-19T12:36:42.327Z,16.25
2023-11-19T12:39:45.108Z,15.60
2023-11-19T12:42:48.276Z,16.15
2023-11-19T12:45:50.252Z,15.00
2023-11-19T12:48:53.150Z,19.70
2023-11-19T12:51:55.440Z,18.77
2023-11-19T12:54:58.873Z,18.33
2023-11-19T12:58:01.144Z,18.55
2023-11-19T13:01:08.335Z,18.60
2023-11-19T13:04:20.699Z,19.35
2023-11-19T13:07:23.261Z,18.35
2023-11-19T13:10:25.240Z,19.23
2023-11-19T13:13:27.167Z,18.65
2023-11-19T13:16:30.221Z,20.48
2023-11-19T13:19:32.316Z,20.40
2023-11-19T13:22:34.166Z,17.38
2023-11-19T13:25:36.081Z,18.70
2023-11-19T13:28:38.727Z,19.80
2023-11-19T13:31:40.771Z,22.80
2023-11-19T13:34:42.759Z,20.02
2023-11-19T13:37:45.945Z,21.83
2023-11-19T13:40:48.082Z,20.23
2023-11-19T13:43:50.047Z,24.92
2023-11-19T13:46:52.249Z,21.60
2023-11-19T13:49:54.172Z,20.42
2023-11-19T13:52:56.297Z,20.60
2023-11-19T13:55:58.194Z,21.50
2023-11-19T13:59:00.054Z,20.73
2023-11-19T14:02:01.958Z,21.17
2023-11-19T14:05:04.682Z,22.63
2023-11-19T14:08:20.050Z,21.67
2023-11-19T14:11:27.999Z,19.40
2023-11-19T14:14:30.007Z,20.83
2023-11-19T14:17:31.936Z,21.73
2023-11-19T14:20:34.490Z,21.08
2023-11-19T14:23:36.488Z,21.27
2023-11-19T14:26:38.434Z,22.63
2023-11-19T14:29:41.544Z,22.48
2023-11-19T14:32:48.053Z,22.67
2023-11-19T14:35:50.038Z,21.70
2023-11-19T14:38:52.111Z,19.58
2023-11-19T14:41:55.122Z,20.50
2023-11-19T14:44:56.994Z,20.83
2023-11-19T14:47:58.935Z,20.52
2023-11-19T14:51:00.992Z,21.02
2023-11-19T14:54:03.116Z,23.42
2023-11-19T14:57:05.273Z,22.13
2023-11-19T15:00:14.401Z,20.38
2023-11-19T15:03:17.756Z,23.40
2023-11-19T15:06:19.709Z,21.23
2023-11-19T15:09:22.381Z,21.30
2023-11-19T15:12:24.469Z,24.40
2023-11-19T15:18:31.819Z,20.80
2023-11-19T15:21:33.844Z,20.42
2023-11-19T15:24:38.153Z,24.10
2023-11-19T15:27:40.075Z,21.27
2023-11-19T15:30:42.610Z,23.88
2023-11-19T15:33:44.545Z,19.55
2023-11-19T15:36:47.759Z,20.08
2023-11-19T15:39:52.347Z,24.27
2023-11-19T15:42:56.391Z,21.35
2023-11-19T15:45:58.309Z,24.83
2023-11-19T15:49:00.327Z,19.33
2023-11-19T15:52:02.346Z,18.40
2023-11-19T15:55:04.534Z,17.20
2023-11-19T15:58:07.666Z,22.58
2023-11-19T16:01:09.873Z,17.70
2023-11-19T16:04:11.939Z,17.25
2023-11-19T16:07:15.321Z,16.73
2023-11-19T16:10:23.938Z,16.88
2023-11-19T16:13:27.857Z,15.10
2023-11-19T16:16:29.830Z,18.13
2023-11-19T16:19:32.148Z,20.00
2023-11-19T16:22:34.867Z,16.52
2023-11-19T16:25:38.381Z,17.98
2023-11-19T16:28:40.713Z,20.45
2023-11-19T16:31:44.424Z,21.90
2023-11-19T16:34:49.019Z,18.35
2023-11-19T16:37:51.380Z,21.27
2023-11-19T16:40:53.805Z,17.02
2023-11-19T16:43:58.113Z,17.65
2023-11-19T16:47:00.059Z,17.20
2023-11-19T16:50:02.268Z,18.23
2023-11-19T16:53:05.688Z,19.92
2023-11-19T16:56:07.848Z,20.98
2023-11-19T16:59:09.829Z,21.83
2023-11-19T17:02:14.478Z,22.50
2023-11-19T17:05:16.591Z,23.52
2023-11-19T17:08:18.535Z,19.42
2023-11-19T17:11:20.514Z,23.38
2023-11-19T17:14:39.889Z,21.98
2023-11-19T17:17:42.785Z,23.98
2023-11-19T17:20:44.813Z,23.67
2023-11-19T17:23:46.697Z,22.60
2023-11-19T17:26:48.813Z,24.63
2023-11-19T17:29:50.730Z,22.17
2023-11-19T17:32:52.746Z,21.52
2023-11-19T17:35:55.818Z,22.92
2023-11-19T17:38:57.931Z,21.02
2023-11-19T17:42:00.028Z,22.30
2023-11-19T17:45:02.156Z,23.90
2023-11-19T17:48:04.428Z,24.33
2023-11-19T17:51:07.976Z,21.88
2023-11-19T17:54:11.279Z,24.45
2023-11-19T17:57:14.312Z,21.60
2023-11-19T18:00:17.226Z,24.83
2023-11-19T18:03:19.585Z,22.48
2023-11-19T18:06:21.568Z,22.13
2023-11-19T18:09:23.557Z,22.92
2023-11-19T18:12:25.418Z,20.40
2023-11-19T18:15:27.418Z,22.48
2023-11-19T18:18:29.406Z,21.52
2023-11-19T18:21:32.633Z,21.38
2023-11-19T18:24:37.428Z,24.30
2023-11-19T18:27:39.609Z,24.77
2023-11-19T18:30:41.572Z,24.95
2023-11-19T18:33:43.588Z,27.65
2023-11-19T18:36:45.667Z,28.50
2023-11-19T18:39:49.749Z,26.17
2023-11-19T18:42:54.083Z,26.60
2023-11-19T18:45:57.563Z,24.77
2023-11-19T18:49:00.714Z,28.58
2023-11-19T18:52:03.441Z,24.48
2023-11-19T18:55:07.196Z,23.55
2023-11-19T18:58:09.409Z,25.95
2023-11-19T19:01:14.992Z,25.40
2023-11-19T19:04:17.875Z,21.58
2023-11-19T19:07:21.626Z,21.75
2023-11-19T19:10:23.847Z,23.13
2023-11-19T19:13:26.336Z,25.20
2023-11-19T19:16:28.621Z,23.35
2023-11-19T19:19:30.687Z,22.70
2023-11-19T19:22:32.589Z,20.90
2023-11-19T19:25:34.477Z,21.25
2023-11-19T19:28:39.719Z,21.35
2023-11-19T19:31:41.676Z,19.65
2023-11-19T19:34:43.884Z,17.58
2023-11-19T19:37:45.869Z,22.15
2023-11-19T19:40:48.344Z,19.58
2023-11-19T19:43:50.988Z,18.27
2023-11-19T19:46:53.043Z,17.88
2023-11-19T19:49:54.884Z,18.52
2023-11-19T19:52:56.821Z,16.30
2023-11-19T19:55:58.723Z,18.38
2023-11-19T19:59:00.884Z,17.48
2023-11-19T20:02:03.197Z,17.75
2023-11-19T20:05:12.327Z,17.67
2023-11-19T20:08:14.558Z,18.92
2023-11-19T20:11:18.837Z,18.45
2023-11-19T20:14:24.295Z,17.95
2023-11-19T20:17:26.647Z,18.55
2023-11-19T20:20:28.769Z,17.85
2023-11-19T20:23:30.892Z,21.15
2023-11-19T20:26:32.964Z,16.63
2023-11-19T20:29:34.956Z,17.88
2023-11-19T20:32:37.848Z,17.80
2023-11-19T20:35:40.294Z,17.50
2023-11-19T20:38:42.719Z,16.13
2023-11-19T20:41:44.616Z,17.48
2023-11-19T20:44:46.748Z,15.52
2023-11-19T20:47:50.943Z,15.57
2023-11-19T20:50:53.394Z,16.48
2023-11-19T20:53:55.355Z,15.50
2023-11-19T20:56:57.351Z,16.80
2023-11-19T20:59:59.387Z,17.02
2023-11-19T21:03:01.693Z,17.08
2023-11-19T21:06:05.314Z,15.32
2023-11-19T21:09:11.312Z,13.68
2023-11-19T21:12:13.836Z,14.93
2023-11-19T21:15:15.748Z,15.60
2023-11-19T21:18:19.225Z,14.30
2023-11-19T21:21:22.495Z,13.85
2023-11-19T21:24:25.691Z,14.88
2023-11-19T21:27:31.092Z,15.80
2023-11-19T21:30:33.276Z,14.93
2023-11-19T21:33:35.246Z,16.05
2023-11-19T21:36:37.344Z,14.70
2023-11-19T21:39:40.933Z,14.45
2023-11-19T21:42:44.084Z,15.35
2023-11-19T21:45:47.183Z,15.85
2023-11-19T21:48:49.781Z,17.90
2023-11-19T21:51:51.924Z,17.13
2023-11-19T21:54:54.982Z,15.93
2023-11-19T21:57:58.341Z,16.67
2023-11-19T22:01:02.511Z,18.92
2023-11-19T22:04:05.864Z,16.90
2023-11-19T22:07:09.564Z,19.83
2023-11-19T22:10:12.767Z,18.70
2023-11-19T22:13:15.315Z,21.10
2023-11-19T22:16:18.304Z,17.63
2023-11-19T22:19:20.806Z,17.45
2023-11-19T22:22:25.441Z,18.33
2023-11-19T22:25:30.818Z,18.38
2023-11-19T22:28:34.420Z,18.20
2023-11-19T22:31:36.585Z,20.92
2023-11-19T22:34:38.689Z,19.00
2023-11-19T22:37:41.245Z,18.80
2023-11-19T22:40:43.582Z,19.85
2023-11-19T22:43:47.174Z,18.48
2023-11-19T22:46:51.163Z,18.52
2023-11-19T22:49:57.970Z,20.60
2023-11-19T22:53:08.781Z,17.52
2023-11-19T22:56:13.704Z,18.88
2023-11-19T22:59:16.710Z,19.35
2023-11-19T23:02:20.185Z,18.88
2023-11-19T23:05:29.744Z,18.58
2023-11-19T23:08:32.178Z,16.10
2023-11-19T23:11:34.605Z,19.52
2023-11-19T23:14:36.545Z,19.17
2023-11-19T23:17:38.709Z,18.00
2023-11-19T23:20:41.263Z,17.42
2023-11-19T23:23:43.882Z,16.77
2023-11-19T23:26:45.851Z,18.65
2023-11-19T23:29:49.238Z,19.10
2023-11-19T23:32:53.535Z,17.95
2023-11-19T23:35:55.469Z,18.55
2023-11-19T23:38:57.464Z,19.30
2023-11-19T23:42:04.294Z,21.50
2023-11-19T23:45:06.716Z,20.50
2023-11-19T23:48:09.034Z,20.02
2023-11-19T23:51:11.359Z,19.48
2023-11-19T23:54:13.775Z,21.10
2023-11-19T23:57:16.092Z,17.85
